Jartai, China
Current Conditions -  °F | °C
As of 6:00 AM on Tuesday 21 Oct 2014 (Local Time) from ZLLL Reporting Station
Haze Haze  
Wind Chill: 28°   Ceiling: Unl
Heat Index: 32°   Visibility: 2mi
Dew Point: 30°   Wind: 4mph
Humidity: 93%   Direction: 330°NNW
Pressure: 30.27"   Gusts: NA
Location:  39.78°N, 105.75°E
Report Text: ZLLL 202200Z 33002MPS 3200 BR NSC M00/M01 Q1025 NOSIG
Loading
Personal Weather Stations






























Interactive Weather Map
Tropical Storm Tracking
New forecast layout! Learn more

10-Day Weather Forecast

Advertisements
Track Severe Weather on mobile